createdAt,value
2018-10-16T00:01:49.653Z,12.83
2018-10-16T00:04:18.197Z,13.03
2018-10-16T00:06:46.771Z,12.70
2018-10-16T00:09:15.287Z,12.50
2018-10-16T00:11:57.968Z,12.63
2018-10-16T00:14:27.204Z,12.43
2018-10-16T00:16:55.801Z,12.83
2018-10-16T00:19:24.372Z,12.73
2018-10-16T00:21:53.007Z,12.50
2018-10-16T00:24:22.077Z,11.43
2018-10-16T00:26:50.808Z,12.57
2018-10-16T00:29:19.628Z,12.67
2018-10-16T00:31:48.199Z,12.90
2018-10-16T00:34:16.823Z,13.13
2018-10-16T00:36:45.479Z,13.33
2018-10-16T00:39:15.306Z,13.70
2018-10-16T00:41:44.156Z,14.07
2018-10-16T00:44:13.456Z,13.27
2018-10-16T00:46:42.108Z,13.27
2018-10-16T00:49:10.730Z,12.83
2018-10-16T00:51:40.408Z,14.60
2018-10-16T00:54:09.497Z,14.23
2018-10-16T00:56:38.340Z,14.03
2018-10-16T00:59:07.186Z,13.10
2018-10-16T01:01:36.014Z,13.00
2018-10-16T01:04:05.843Z,13.63
2018-10-16T01:06:35.429Z,15.20
2018-10-16T01:09:07.971Z,13.80
2018-10-16T01:11:36.778Z,18.07
2018-10-16T01:14:06.510Z,16.50
2018-10-16T01:16:35.085Z,15.33
2018-10-16T01:19:03.800Z,14.93
2018-10-16T01:21:32.357Z,14.40
2018-10-16T01:24:00.947Z,15.20
2018-10-16T01:26:29.497Z,15.87
2018-10-16T01:28:58.059Z,15.33
2018-10-16T01:31:26.783Z,15.27
2018-10-16T01:33:55.421Z,14.17
2018-10-16T01:36:23.951Z,15.93
2018-10-16T01:38:52.516Z,14.87
2018-10-16T01:41:21.225Z,13.73
2018-10-16T01:43:49.764Z,13.93
2018-10-16T01:46:18.404Z,14.47
2018-10-16T01:48:46.914Z,13.67
2018-10-16T01:51:15.545Z,13.43
2018-10-16T01:53:44.189Z,14.17
2018-10-16T01:56:12.766Z,13.90
2018-10-16T01:58:41.296Z,14.70
2018-10-16T02:01:10.004Z,12.00
2018-10-16T02:03:38.582Z,12.43
2018-10-16T02:06:07.149Z,12.73
2018-10-16T02:08:35.752Z,14.17
2018-10-16T02:11:05.160Z,13.10
2018-10-16T02:13:33.740Z,13.20
2018-10-16T02:16:02.276Z,13.50
2018-10-16T02:18:30.909Z,12.30
2018-10-16T02:20:59.535Z,13.70
2018-10-16T02:23:28.108Z,13.60
2018-10-16T02:25:56.796Z,14.37
2018-10-16T02:28:25.972Z,14.03
2018-10-16T02:30:54.651Z,14.73
2018-10-16T02:33:23.200Z,14.30
2018-10-16T02:35:51.840Z,15.03
2018-10-16T02:38:20.447Z,13.63
2018-10-16T02:40:49.135Z,14.30
2018-10-16T02:43:17.671Z,14.03
2018-10-16T02:45:46.281Z,13.63
2018-10-16T02:48:14.836Z,13.73
2018-10-16T02:50:44.207Z,14.20
2018-10-16T02:53:12.771Z,13.50
2018-10-16T02:55:41.296Z,14.77
2018-10-16T02:58:09.918Z,14.23
2018-10-16T03:00:38.516Z,13.80
2018-10-16T03:03:07.147Z,13.83
2018-10-16T03:05:35.741Z,13.73
2018-10-16T03:08:06.312Z,14.23
2018-10-16T03:10:34.888Z,14.57
2018-10-16T03:13:03.436Z,13.30
2018-10-16T03:15:32.370Z,12.50
2018-10-16T03:18:01.093Z,13.30
2018-10-16T03:20:29.641Z,14.97
2018-10-16T03:22:58.138Z,15.77
2018-10-16T03:25:26.711Z,15.00
2018-10-16T03:27:55.328Z,16.13
2018-10-16T03:30:24.014Z,16.90
2018-10-16T03:32:52.819Z,16.30
2018-10-16T03:35:21.397Z,17.00
2018-10-16T03:37:49.994Z,15.77
2018-10-16T03:40:18.637Z,17.77
2018-10-16T03:42:47.296Z,16.53
2018-10-16T03:45:15.880Z,16.07
2018-10-16T03:47:44.606Z,15.40
2018-10-16T03:50:12.997Z,17.13
2018-10-16T03:52:41.725Z,16.60
2018-10-16T03:55:10.346Z,17.30
2018-10-16T03:57:38.972Z,17.37
2018-10-16T04:00:08.442Z,17.77
2018-10-16T04:02:36.984Z,16.43
2018-10-16T04:05:05.875Z,16.23
2018-10-16T04:07:34.462Z,17.17
2018-10-16T04:10:04.149Z,17.67
2018-10-16T04:12:32.795Z,17.23
2018-10-16T04:15:01.372Z,18.43
2018-10-16T04:17:29.943Z,20.30
2018-10-16T04:19:58.551Z,18.50
2018-10-16T04:22:27.223Z,18.03
2018-10-16T04:24:55.906Z,19.33
2018-10-16T04:27:24.495Z,19.10
2018-10-16T04:29:53.071Z,18.17
2018-10-16T04:32:21.761Z,19.43
2018-10-16T04:34:50.360Z,19.77
2018-10-16T04:37:18.917Z,20.60
2018-10-16T04:39:47.520Z,19.93
2018-10-16T04:42:16.176Z,21.97
2018-10-16T04:44:44.785Z,22.17
2018-10-16T04:47:13.331Z,25.23
2018-10-16T04:49:41.962Z,25.77
2018-10-16T04:52:10.663Z,30.50
2018-10-16T04:54:39.394Z,31.50
2018-10-16T04:57:08.118Z,32.23
2018-10-16T04:59:36.642Z,33.07
2018-10-16T05:02:05.494Z,31.63
2018-10-16T05:04:36.024Z,32.73
2018-10-16T05:07:04.788Z,31.80
2018-10-16T05:09:33.464Z,32.00
2018-10-16T05:12:02.278Z,28.87
2018-10-16T05:14:30.834Z,29.13
2018-10-16T05:16:59.576Z,28.30
2018-10-16T05:19:28.122Z,27.80
2018-10-16T05:21:56.892Z,30.23
2018-10-16T05:24:25.521Z,28.27
2018-10-16T05:26:54.210Z,27.63
2018-10-16T05:29:22.863Z,26.80
2018-10-16T05:31:51.463Z,25.77
2018-10-16T05:34:20.139Z,25.17
2018-10-16T05:36:49.564Z,26.33
2018-10-16T05:39:18.222Z,26.70
2018-10-16T05:41:46.898Z,26.13
2018-10-16T05:44:15.585Z,26.67
2018-10-16T05:46:44.240Z,26.37
2018-10-16T05:49:12.961Z,24.33
2018-10-16T05:51:41.665Z,26.33
2018-10-16T05:54:10.374Z,25.17
2018-10-16T05:56:38.993Z,25.83
2018-10-16T05:59:07.533Z,28.87
2018-10-16T06:01:36.191Z,27.17
2018-10-16T06:04:04.934Z,27.50
2018-10-16T06:06:33.556Z,27.90
2018-10-16T06:09:02.248Z,28.57
2018-10-16T06:11:30.969Z,30.20
2018-10-16T06:13:59.623Z,29.17
2018-10-16T06:16:28.620Z,30.57
2018-10-16T06:18:57.828Z,32.23
2018-10-16T06:21:26.481Z,30.27
2018-10-16T06:23:55.147Z,30.33
2018-10-16T06:26:24.426Z,30.37
2018-10-16T06:28:53.179Z,31.10
2018-10-16T06:31:21.918Z,30.80
2018-10-16T06:33:50.608Z,29.63
2018-10-16T06:36:19.313Z,29.70
2018-10-16T06:38:47.914Z,30.27
2018-10-16T06:41:16.745Z,29.37
2018-10-16T06:43:45.294Z,29.80
2018-10-16T06:46:13.974Z,28.60
2018-10-16T06:48:42.908Z,32.13
2018-10-16T06:51:11.192Z,29.80
2018-10-16T06:53:39.815Z,29.90
2018-10-16T06:56:08.434Z,30.27
2018-10-16T06:58:37.088Z,30.50
2018-10-16T07:01:07.753Z,28.47
2018-10-16T07:03:36.510Z,28.90
2018-10-16T07:06:05.373Z,27.67
2018-10-16T07:08:34.274Z,28.63
2018-10-16T07:11:03.153Z,27.17
2018-10-16T07:13:33.892Z,28.77
2018-10-16T07:16:02.725Z,27.27
2018-10-16T07:18:31.543Z,28.17
2018-10-16T07:21:01.457Z,27.17
2018-10-16T07:23:30.317Z,28.87
2018-10-16T07:25:59.139Z,28.77
2018-10-16T07:28:28.097Z,29.40
2018-10-16T07:30:58.685Z,28.13
2018-10-16T07:33:27.590Z,29.00
2018-10-16T07:35:57.184Z,28.87
2018-10-16T07:38:26.834Z,27.73
2018-10-16T07:40:55.510Z,29.40
2018-10-16T07:43:24.386Z,28.43
2018-10-16T07:45:53.104Z,28.20
2018-10-16T07:48:21.946Z,27.27
2018-10-16T07:50:50.865Z,28.20
2018-10-16T07:53:21.337Z,26.60
2018-10-16T07:55:51.103Z,28.03
2018-10-16T07:58:19.848Z,27.60
2018-10-16T08:00:48.754Z,28.27
2018-10-16T08:03:17.622Z,26.87
2018-10-16T08:05:46.360Z,25.17
2018-10-16T08:08:16.073Z,26.40
2018-10-16T08:10:45.416Z,23.93
2018-10-16T08:13:14.244Z,25.43
2018-10-16T08:15:43.060Z,24.27
2018-10-16T08:18:12.750Z,24.97
2018-10-16T08:20:41.705Z,23.57
2018-10-16T08:23:10.446Z,23.53
2018-10-16T08:25:39.447Z,20.50
2018-10-16T08:28:08.413Z,21.23
2018-10-16T08:30:37.338Z,19.87
2018-10-16T08:33:06.557Z,20.30
2018-10-16T08:35:37.238Z,18.87
2018-10-16T08:39:17.425Z,20.13
2018-10-16T08:42:56.043Z,18.97
2018-10-16T08:45:36.127Z,18.03
2018-10-16T08:48:20.236Z,18.37
2018-10-16T08:51:02.173Z,18.17
2018-10-16T08:53:38.113Z,17.53
2018-10-16T08:56:06.833Z,17.30
2018-10-16T08:58:35.452Z,19.03
2018-10-16T09:01:04.053Z,18.23
2018-10-16T09:03:32.592Z,19.00
2018-10-16T09:06:01.436Z,18.60
2018-10-16T09:08:30.184Z,20.17
2018-10-16T09:10:58.764Z,19.60
2018-10-16T09:13:27.525Z,20.70
2018-10-16T09:15:56.089Z,19.90
2018-10-16T09:18:24.979Z,20.57
2018-10-16T09:20:53.757Z,20.67
2018-10-16T09:23:22.520Z,20.60
2018-10-16T09:25:51.448Z,19.83
2018-10-16T09:28:20.154Z,19.47
2018-10-16T09:30:48.979Z,20.63
2018-10-16T09:33:17.837Z,19.80
2018-10-16T09:35:46.433Z,19.93
2018-10-16T09:38:14.965Z,19.10
2018-10-16T09:40:43.535Z,19.10
2018-10-16T09:43:12.118Z,20.97
2018-10-16T09:45:40.838Z,18.93
2018-10-16T09:48:09.626Z,18.20
2018-10-16T09:50:38.379Z,17.50
2018-10-16T09:53:07.493Z,18.07
2018-10-16T09:55:36.065Z,18.77
2018-10-16T09:58:06.026Z,18.33
2018-10-16T10:00:40.123Z,17.27
2018-10-16T10:03:08.735Z,16.33
2018-10-16T10:05:38.185Z,17.97
2018-10-16T10:08:07.006Z,17.07
2018-10-16T10:10:35.595Z,16.40
2018-10-16T10:13:04.303Z,16.23
2018-10-16T10:15:33.585Z,17.37
2018-10-16T10:18:02.178Z,17.73
2018-10-16T10:20:31.484Z,16.10
2018-10-16T10:23:00.036Z,14.83
2018-10-16T10:25:28.649Z,13.37
2018-10-16T10:27:57.238Z,14.47
2018-10-16T10:30:25.748Z,13.37
2018-10-16T10:32:54.413Z,13.87
2018-10-16T10:35:23.018Z,13.10
2018-10-16T10:37:51.627Z,11.90
2018-10-16T10:40:20.177Z,12.20
2018-10-16T10:42:48.835Z,12.40
2018-10-16T10:45:17.454Z,11.23
2018-10-16T10:47:46.041Z,10.80
2018-10-16T10:50:15.056Z,10.53
2018-10-16T10:52:43.562Z,10.50
2018-10-16T10:55:12.207Z,10.53
2018-10-16T10:57:41.190Z,11.03
2018-10-16T11:00:12.885Z,10.07
2018-10-16T11:02:42.371Z,11.73
2018-10-16T11:05:11.653Z,10.77
2018-10-16T11:07:40.307Z,10.43
2018-10-16T11:10:11.585Z,11.30
2018-10-16T11:12:40.701Z,10.60
2018-10-16T11:15:09.503Z,9.77
2018-10-16T11:17:39.573Z,9.57
2018-10-16T11:20:10.115Z,9.43
2018-10-16T11:22:38.924Z,9.47
2018-10-16T11:25:08.951Z,8.53
2018-10-16T11:27:37.925Z,10.23
2018-10-16T11:30:09.227Z,9.10
2018-10-16T11:32:38.265Z,10.47
2018-10-16T11:35:08.165Z,9.93
2018-10-16T11:37:36.840Z,9.67
2018-10-16T11:40:05.548Z,7.23
2018-10-16T11:42:34.258Z,7.23
2018-10-16T11:45:03.040Z,6.90
2018-10-16T11:47:31.789Z,6.93
2018-10-16T11:50:00.476Z,6.20
2018-10-16T11:52:30.368Z,6.20
2018-10-16T11:54:59.876Z,6.13
2018-10-16T11:57:28.520Z,6.13
2018-10-16T11:59:57.091Z,6.03
2018-10-16T12:02:25.752Z,6.10
2018-10-16T12:04:54.553Z,5.93
2018-10-16T12:07:23.232Z,5.60
2018-10-16T12:09:51.810Z,5.73
2018-10-16T12:12:20.443Z,6.83
2018-10-16T12:14:49.603Z,6.60
2018-10-16T12:17:37.010Z,6.17
2018-10-16T12:20:14.332Z,6.70
2018-10-16T12:22:42.993Z,6.00
2018-10-16T12:25:11.637Z,6.27
2018-10-16T12:27:40.820Z,5.67
2018-10-16T12:30:09.904Z,6.00
2018-10-16T12:32:38.633Z,5.97
2018-10-16T12:35:07.609Z,6.63
2018-10-16T12:37:36.213Z,5.70
2018-10-16T12:40:12.206Z,6.40
2018-10-16T12:42:40.748Z,5.97
2018-10-16T12:45:09.497Z,5.70
2018-10-16T12:47:38.987Z,5.43
2018-10-16T12:50:07.560Z,6.20
2018-10-16T12:52:36.261Z,6.00
2018-10-16T12:55:06.473Z,5.93
2018-10-16T12:57:35.065Z,5.67
2018-10-16T13:00:03.767Z,5.57
2018-10-16T13:02:32.387Z,6.20
2018-10-16T13:05:00.936Z,5.73
2018-10-16T13:07:35.783Z,6.20
2018-10-16T13:10:07.427Z,5.70
2018-10-16T13:12:36.146Z,5.83
2018-10-16T13:15:05.509Z,5.40
2018-10-16T13:17:34.187Z,5.53
2018-10-16T13:20:02.841Z,5.17
2018-10-16T13:22:31.662Z,6.30
2018-10-16T13:25:00.253Z,5.40
2018-10-16T13:27:28.932Z,5.70
2018-10-16T13:29:57.887Z,5.90
2018-10-16T13:32:26.524Z,6.10
2018-10-16T13:34:55.131Z,5.77
2018-10-16T13:37:23.840Z,5.97
2018-10-16T13:39:52.620Z,5.80
2018-10-16T13:42:21.387Z,5.90
2018-10-16T13:44:50.659Z,5.90
2018-10-16T13:47:19.218Z,5.77
2018-10-16T13:49:47.726Z,5.83
2018-10-16T13:52:16.383Z,6.10
2018-10-16T13:54:45.088Z,5.27
2018-10-16T13:57:13.700Z,6.00
2018-10-16T13:59:42.348Z,5.30
2018-10-16T14:02:11.094Z,5.63
2018-10-16T14:04:39.663Z,5.40
2018-10-16T14:07:08.262Z,5.97
2018-10-16T14:09:37.077Z,5.60
2018-10-16T14:12:06.339Z,5.60
2018-10-16T14:14:35.027Z,5.90
2018-10-16T14:17:03.646Z,6.20
2018-10-16T14:19:32.380Z,5.80
2018-10-16T14:22:01.275Z,5.37
2018-10-16T14:24:30.096Z,5.60
2018-10-16T14:26:59.840Z,6.13
2018-10-16T14:29:28.695Z,5.87
2018-10-16T14:31:58.021Z,5.40
2018-10-16T14:34:26.744Z,5.60
2018-10-16T14:36:55.877Z,6.00
2018-10-16T14:39:24.474Z,5.17
2018-10-16T14:41:53.325Z,6.20
2018-10-16T14:44:22.859Z,5.93
2018-10-16T14:46:51.488Z,5.57
2018-10-16T14:49:20.188Z,5.40
2018-10-16T14:51:48.844Z,6.03
2018-10-16T14:54:18.344Z,5.40
2018-10-16T14:56:47.009Z,5.50
2018-10-16T14:59:15.748Z,6.33
2018-10-16T15:01:44.909Z,6.13
2018-10-16T15:04:13.675Z,6.03
2018-10-16T15:06:42.223Z,6.10
2018-10-16T15:09:11.284Z,6.00
2018-10-16T15:11:40.576Z,5.73
2018-10-16T15:14:10.106Z,6.27
2018-10-16T15:16:39.768Z,5.77
2018-10-16T15:19:08.408Z,6.23
2018-10-16T15:21:36.942Z,7.10
2018-10-16T15:24:05.882Z,5.67
2018-10-16T15:26:34.470Z,6.47
2018-10-16T15:29:03.090Z,5.47
2018-10-16T15:31:31.728Z,5.97
2018-10-16T15:34:00.321Z,5.83
2018-10-16T15:36:28.970Z,5.80
2018-10-16T15:38:57.576Z,5.33
2018-10-16T15:41:26.164Z,6.20
2018-10-16T15:43:54.743Z,5.87
2018-10-16T15:46:23.327Z,6.63
2018-10-16T15:48:51.915Z,5.00
2018-10-16T15:51:20.609Z,5.77
2018-10-16T15:53:49.286Z,5.20
2018-10-16T15:56:18.066Z,6.10
2018-10-16T15:58:46.740Z,6.00
2018-10-16T16:01:15.553Z,5.43
2018-10-16T16:03:44.935Z,5.30
2018-10-16T16:06:13.672Z,6.10
2018-10-16T16:08:42.337Z,6.43
2018-10-16T16:11:11.112Z,6.67
2018-10-16T16:13:39.749Z,6.20
2018-10-16T16:16:08.324Z,7.27
2018-10-16T16:18:37.833Z,6.90
2018-10-16T16:21:06.772Z,8.00
2018-10-16T16:23:35.292Z,7.33
2018-10-16T16:26:03.981Z,6.60
2018-10-16T16:28:32.857Z,6.80
2018-10-16T16:31:01.527Z,8.13
2018-10-16T16:33:30.170Z,8.50
2018-10-16T16:35:59.791Z,8.00
2018-10-16T16:38:28.360Z,11.67
2018-10-16T16:40:57.121Z,17.40
2018-10-16T16:43:25.731Z,12.33
2018-10-16T16:45:54.396Z,12.60
2018-10-16T16:48:22.963Z,10.53
2018-10-16T16:50:51.608Z,10.50
2018-10-16T16:53:20.176Z,10.33
2018-10-16T16:55:48.754Z,9.90
2018-10-16T16:58:17.340Z,9.40
2018-10-16T17:00:46.053Z,10.03
2018-10-16T17:03:14.758Z,9.97
2018-10-16T17:05:43.346Z,9.77
2018-10-16T17:08:11.950Z,9.93
2018-10-16T17:10:40.609Z,10.27
2018-10-16T17:13:09.284Z,9.67
2018-10-16T17:15:37.858Z,9.67
2018-10-16T17:18:06.433Z,10.43
2018-10-16T17:20:35.119Z,9.83
2018-10-16T17:23:03.823Z,10.40
2018-10-16T17:25:32.575Z,9.17
2018-10-16T17:28:01.044Z,9.80
2018-10-16T17:30:30.964Z,9.57
2018-10-16T17:32:59.732Z,10.47
2018-10-16T17:35:28.491Z,10.03
2018-10-16T17:37:58.077Z,11.03
2018-10-16T17:40:27.513Z,10.57
2018-10-16T17:42:56.314Z,14.40
2018-10-16T17:45:25.001Z,14.70
2018-10-16T17:47:53.847Z,13.47
2018-10-16T17:50:22.368Z,12.70
2018-10-16T17:52:53.850Z,12.60
2018-10-16T17:55:23.522Z,12.83
2018-10-16T17:57:52.121Z,11.90
2018-10-16T18:00:20.661Z,11.33
2018-10-16T18:02:49.280Z,12.23
2018-10-16T18:05:18.076Z,12.10
2018-10-16T18:07:46.839Z,12.40
2018-10-16T18:10:15.475Z,12.00
2018-10-16T18:12:44.254Z,11.37
2018-10-16T18:15:13.880Z,11.63
2018-10-16T18:17:43.177Z,11.60
2018-10-16T18:20:13.616Z,11.27
2018-10-16T18:22:42.332Z,12.10
2018-10-16T18:25:11.685Z,12.13
2018-10-16T18:27:40.705Z,12.23
2018-10-16T18:30:09.885Z,12.03
2018-10-16T18:32:38.874Z,12.83
2018-10-16T18:35:07.592Z,12.47
2018-10-16T18:37:36.780Z,13.47
2018-10-16T18:40:07.336Z,12.70
2018-10-16T18:42:35.964Z,13.50
2018-10-16T18:45:05.109Z,13.10
2018-10-16T18:47:33.720Z,13.50
2018-10-16T18:50:02.877Z,13.03
2018-10-16T18:52:31.595Z,13.37
2018-10-16T18:55:00.566Z,12.30
2018-10-16T18:57:29.876Z,13.17
2018-10-16T18:59:58.565Z,12.57
2018-10-16T19:02:27.243Z,14.30
2018-10-16T19:04:55.976Z,14.00
2018-10-16T19:07:24.625Z,13.47
2018-10-16T19:09:53.331Z,13.73
2018-10-16T19:12:22.080Z,14.87
2018-10-16T19:14:50.677Z,14.53
2018-10-16T19:17:19.883Z,14.30
2018-10-16T19:19:48.555Z,14.90
2018-10-16T19:22:17.822Z,15.03
2018-10-16T19:24:46.401Z,15.17
2018-10-16T19:27:14.954Z,14.87
2018-10-16T19:29:43.471Z,15.03
2018-10-16T19:32:12.077Z,15.47
2018-10-16T19:34:40.635Z,15.07
2018-10-16T19:37:09.214Z,14.83
2018-10-16T19:39:37.838Z,14.60
2018-10-16T19:42:07.479Z,14.10
2018-10-16T19:44:36.070Z,14.47
2018-10-16T19:47:04.973Z,13.93
2018-10-16T19:49:33.685Z,14.23
2018-10-16T19:52:02.458Z,13.70
2018-10-16T19:54:31.134Z,14.50
2018-10-16T19:56:59.752Z,14.60
2018-10-16T19:59:28.410Z,14.07
2018-10-16T20:01:57.037Z,14.37
2018-10-16T20:04:25.587Z,12.97
2018-10-16T20:06:54.168Z,13.00
2018-10-16T20:09:23.384Z,13.60
2018-10-16T20:11:52.019Z,13.50
2018-10-16T20:14:20.763Z,14.13
2018-10-16T20:16:49.325Z,13.27
2018-10-16T20:19:17.936Z,12.63
2018-10-16T20:21:46.596Z,11.80
2018-10-16T20:24:15.166Z,12.30
2018-10-16T20:26:43.750Z,12.67
2018-10-16T20:29:12.336Z,11.30
2018-10-16T20:31:41.045Z,12.27
2018-10-16T20:34:09.657Z,11.53
2018-10-16T20:36:38.520Z,11.73
2018-10-16T20:39:10.189Z,11.63
2018-10-16T20:41:39.146Z,12.23
2018-10-16T20:44:07.822Z,11.00
2018-10-16T20:46:36.543Z,12.57
2018-10-16T20:49:05.765Z,12.50
2018-10-16T20:51:34.670Z,11.43
2018-10-16T20:54:03.446Z,12.20
2018-10-16T20:56:32.573Z,12.77
2018-10-16T20:59:01.300Z,12.13
2018-10-16T21:01:29.989Z,12.13
2018-10-16T21:03:58.504Z,12.17
2018-10-16T21:06:27.176Z,12.53
2018-10-16T21:08:55.808Z,12.50
2018-10-16T21:11:24.465Z,11.80
2018-10-16T21:13:53.068Z,11.77
2018-10-16T21:16:21.734Z,12.00
2018-10-16T21:18:50.434Z,11.93
2018-10-16T21:21:19.125Z,12.00
2018-10-16T21:23:47.769Z,12.17
2018-10-16T21:26:16.481Z,11.80
2018-10-16T21:28:45.110Z,12.30
2018-10-16T21:31:13.853Z,11.70
2018-10-16T21:33:42.564Z,11.77
2018-10-16T21:36:11.131Z,11.37
2018-10-16T21:38:39.726Z,11.90
2018-10-16T21:41:08.442Z,11.13
2018-10-16T21:43:37.012Z,11.93
2018-10-16T21:46:06.061Z,11.60
2018-10-16T21:48:34.667Z,11.77
2018-10-16T21:51:03.382Z,11.77
2018-10-16T21:53:32.063Z,12.13
2018-10-16T21:56:00.727Z,12.50
2018-10-16T21:58:29.391Z,12.87
2018-10-16T22:01:03.331Z,13.13
2018-10-16T22:03:32.767Z,12.43
2018-10-16T22:06:01.376Z,13.47
2018-10-16T22:08:29.885Z,12.90
2018-10-16T22:10:58.567Z,12.93
2018-10-16T22:13:27.154Z,13.03
2018-10-16T22:15:55.725Z,13.30
2018-10-16T22:18:24.279Z,13.53
2018-10-16T22:20:53.193Z,13.73
2018-10-16T22:23:21.887Z,13.53
2018-10-16T22:25:50.504Z,13.07
2018-10-16T22:28:19.099Z,13.87
2018-10-16T22:30:47.886Z,12.40
2018-10-16T22:33:16.446Z,12.80
2018-10-16T22:35:45.159Z,11.93
2018-10-16T22:38:13.824Z,12.07
2018-10-16T22:40:42.475Z,12.90
2018-10-16T22:43:11.185Z,12.40
2018-10-16T22:45:39.710Z,12.33
2018-10-16T22:48:08.259Z,13.03
2018-10-16T22:50:36.819Z,12.83
2018-10-16T22:53:05.561Z,12.87
2018-10-16T22:55:34.163Z,13.30
2018-10-16T22:58:02.973Z,13.43
2018-10-16T23:00:31.547Z,14.37
2018-10-16T23:03:00.144Z,13.63
2018-10-16T23:05:28.770Z,15.40
2018-10-16T23:07:57.383Z,15.30
2018-10-16T23:10:26.022Z,16.10
2018-10-16T23:13:05.004Z,15.17
2018-10-16T23:15:33.470Z,16.37
2018-10-16T23:18:02.522Z,17.20
2018-10-16T23:20:32.078Z,17.23
2018-10-16T23:23:00.619Z,18.27
2018-10-16T23:25:29.228Z,17.97
2018-10-16T23:27:57.823Z,18.40
2018-10-16T23:30:26.373Z,20.10
2018-10-16T23:32:55.023Z,19.23
2018-10-16T23:35:23.667Z,22.50
2018-10-16T23:40:34.188Z,22.30
2018-10-16T23:43:03.350Z,22.97
2018-10-16T23:45:31.840Z,22.17
2018-10-16T23:48:00.423Z,24.10
2018-10-16T23:50:28.963Z,24.87
2018-10-16T23:52:57.602Z,24.47
2018-10-16T23:55:26.228Z,26.07
2018-10-16T23:57:54.919Z,25.73
